DAAT

Aguenar – Hadj Bey Akhamok Airport

Tamanrasset, Algeria
METAR DAAT 172100Z 03004KT 9999 FEW040CB BKN046 14/M02 Q1021
Observed Flight Rules
Feb-17 @ 21:00 UTC (35 minutes ago) Visual Flight Rules
Wind Visibility Clouds
30° at 4 knots 10,000+ meters
  • Few at 4,000' AGL
  • Broken at 4,600' AGL
Temperatures Readings
Current 14°C / 57°F
Dewpoint -2°C / 28°F
Humidity 33%
Altimeter 30.15" Hg
Pressure 1021 hPa
Elevation 1377
METAR DAAT 172100Z 03004KT 9999 FEW040CB BKN046 14/M02 Q1021
Observed Flight Rules
Feb-17 @ 21:00 UTC
(35 minutes ago)
VFR
Wind Visibility
30° at 4 knots 10,000+ meters
Clouds
  • Few at 4,000' AGL
  • Broken at 4,600' AGL
Temperature Dewpoint
14°C / 57°F -2°C / 28°F
Humidity Altimeter Pressure
33% 30.15" Hg 1021 hPa